Time;durP1;ratioP1;P1;durP2;ratioP2;P2;SDS_P1;SDS_P2;PMS_P1;PMS_P2;Temp;Humidity;BMP_temperature;BMP_pressure;BME280_temperature;BME280_humidity;BME280_pressure;Samples;Min_cycle;Max_cycle;Signal;HPM_P1;HPM_P2
2023/03/25 00:00:23;;;;;;;;;;;;;;;14.35;54.50;96880.53;4217230;28;5738;-70
2023/03/25 00:02:28;;;;;;;;;;;;;;;14.35;54.81;96880.53;4210217;28;5828;-70
2023/03/25 00:04:33;;;;;;;;;;;;;;;14.36;54.70;96887.50;4219678;28;5621;-70
2023/03/25 00:06:37;;;;;;;;;;;;;;;14.38;54.81;96890.75;4213605;28;5625;-70
2023/03/25 00:08:42;;;;;;;;;;;;;;;14.39;54.57;96892.41;4219404;28;5823;-70
2023/03/25 00:10:45;;;;;;;;;;;;;;;14.42;54.60;96902.59;4206108;28;5612;-70
2023/03/25 00:12:48;;;;;;;;;;;;;;;14.41;54.75;96903.63;4206259;28;5654;-70
2023/03/25 00:14:54;;;;;;;;;;;;;;;14.38;54.91;96896.88;4218059;28;5646;-70
2023/03/25 00:16:57;;;;;;;;;;;;;;;14.37;54.98;96897.91;4212084;28;6506;-70
2023/03/25 00:19:01;;;;;;;;;;;;;;;14.37;54.71;96897.91;4213703;28;5744;-70
2023/03/25 00:21:06;;;;;;;;;;;;;;;14.37;54.94;96889.13;4208415;28;5749;-70
2023/03/25 00:23:09;;;;;;;;;;;;;;;14.35;54.92;96893.84;4219406;28;5692;-70
2023/03/25 00:25:16;;;;;;;;;;;;;;;14.32;55.01;96892.44;4213087;28;5763;-71
2023/03/25 00:27:19;;;;;;;;;;;;;;;14.28;55.05;96889.41;4214934;28;5717;-71
2023/03/25 00:29:22;;;;;;;;;;;;;;;14.25;54.95;96892.47;4208368;28;5711;-71
2023/03/25 00:31:27;;;;;;;;;;;;;;;14.26;55.16;96895.94;4214553;28;5620;-71
2023/03/25 00:33:30;;;;;;;;;;;;;;;14.22;55.12;96892.91;4211671;28;6407;-71
2023/03/25 00:35:34;;;;;;;;;;;;;;;14.22;55.03;96898.22;4194278;28;5837;-70
2023/03/25 00:37:37;;;;;;;;;;;;;;;14.17;55.12;96891.91;4202247;28;6302;-70
2023/03/25 00:39:40;;;;;;;;;;;;;;;14.18;55.01;96872.28;4206826;28;5887;-70
2023/03/25 00:41:43;;;;;;;;;;;;;;;14.17;55.01;96889.25;4216280;28;7731;-70
2023/03/25 00:43:45;;;;;;;;;;;;;;;14.20;55.23;96889.63;4215142;28;6312;-70
2023/03/25 00:45:48;;;;;;;;;;;;;;;14.23;55.04;96880.41;4211713;28;5623;-70
2023/03/25 00:47:53;;;;;;;;;;;;;;;14.25;54.87;96881.00;4210061;28;5628;-70
2023/03/25 00:49:56;;;;;;;;;;;;;;;14.26;54.78;96885.28;4217003;28;5740;-70
2023/03/25 00:51:59;;;;;;;;;;;;;;;14.30;54.88;96886.53;4214264;28;5830;-70
2023/03/25 00:54:02;;;;;;;;;;;;;;;14.27;54.59;96869.16;4218545;28;5707;-70
2023/03/25 00:56:06;;;;;;;;;;;;;;;14.25;54.88;96873.84;4215697;28;5708;-70
2023/03/25 00:58:09;;;;;;;;;;;;;;;14.24;54.75;96864.25;4214896;28;5624;-70
2023/03/25 01:00:14;;;;;;;;;;;;;;;14.20;54.65;96860.41;4216257;28;5695;-70
2023/03/25 01:02:17;;;;;;;;;;;;;;;14.19;54.72;96849.97;4215018;28;6327;-71
2023/03/25 01:04:22;;;;;;;;;;;;;;;14.23;54.72;96851.16;4218082;28;5716;-71
2023/03/25 01:06:28;;;;;;;;;;;;;;;14.24;54.36;96850.13;4214879;28;6306;-70
2023/03/25 01:08:31;;;;;;;;;;;;;;;14.24;54.61;96852.78;4202444;28;5730;-70
2023/03/25 01:10:35;;;;;;;;;;;;;;;14.26;54.42;96850.72;4214835;28;5829;-70
2023/03/25 01:12:39;;;;;;;;;;;;;;;14.28;54.49;96846.03;4206609;28;5635;-71
2023/03/25 01:14:42;;;;;;;;;;;;;;;14.31;54.10;96850.91;4216880;28;5835;-70
2023/03/25 01:16:45;;;;;;;;;;;;;;;14.35;54.12;96849.44;4213902;28;5605;-70
2023/03/25 01:18:48;;;;;;;;;;;;;;;14.38;54.15;96854.31;4213755;28;5613;-71
2023/03/25 01:20:53;;;;;;;;;;;;;;;14.42;54.31;96854.72;4216285;28;5768;-71
2023/03/25 01:22:56;;;;;;;;;;;;;;;14.41;54.21;96869.88;4216097;28;5734;-70
2023/03/25 01:24:58;;;;;;;;;;;;;;;14.40;54.01;96860.28;4203635;28;6419;-71
2023/03/25 01:27:01;;;;;;;;;;;;;;;14.37;53.92;96858.03;4214112;28;5716;-71
2023/03/25 01:29:04;;;;;;;;;;;;;;;14.33;54.31;96864.81;4217028;28;5835;-71
2023/03/25 01:31:09;;;;;;;;;;;;;;;14.23;54.00;96859.16;4206911;28;6362;-71
2023/03/25 01:33:12;;;;;;;;;;;;;;;14.09;54.02;96855.75;4209657;28;5730;-71
2023/03/25 01:35:15;;;;;;;;;;;;;;;13.88;54.04;96851.56;4213365;28;5635;-70
2023/03/25 01:37:21;;;;;;;;;;;;;;;13.77;54.34;96868.19;4212637;28;5656;-71
2023/03/25 01:39:24;;;;;;;;;;;;;;;13.74;54.05;96865.13;4215142;28;5660;-70
2023/03/25 01:41:28;;;;;;;;;;;;;;;13.74;54.07;96854.50;4215307;28;5617;-71
2023/03/25 01:44:05;;;;;;;;;;;;;;;13.77;54.20;96846.94;4217591;28;5724;-71
2023/03/25 01:46:13;;;;;;;;;;;;;;;13.78;54.06;96843.25;4209046;28;5868;-70
2023/03/25 01:48:21;;;;;;;;;;;;;;;13.76;54.24;96850.63;4209917;28;5683;-71
2023/03/25 01:50:28;;;;;;;;;;;;;;;13.76;54.33;96850.63;4209898;28;6818;-70
2023/03/25 01:52:32;;;;;;;;;;;;;;;13.77;54.32;96852.25;4216927;28;5776;-70
2023/03/25 01:54:37;;;;;;;;;;;;;;;13.78;54.29;96853.06;4216030;28;5617;-70
2023/03/25 01:56:41;;;;;;;;;;;;;;;13.83;54.33;96851.41;4200946;28;5763;-70
2023/03/25 01:58:44;;;;;;;;;;;;;;;13.84;54.17;96842.41;4210236;28;5761;-71
2023/03/25 02:00:49;;;;;;;;;;;;;;;13.85;54.04;96844.03;4198860;28;5082;-70
2023/03/25 02:02:57;;;;;;;;;;;;;;;13.88;54.12;96832.97;4216554;28;6333;-71
2023/03/25 02:05:06;;;;;;;;;;;;;;;13.89;54.34;96837.25;4214359;28;6309;-70
2023/03/25 02:07:09;;;;;;;;;;;;;;;13.91;54.13;96827.22;4210971;28;6373;-71
2023/03/25 02:09:17;;;;;;;;;;;;;;;13.91;54.43;96832.53;4215067;28;5811;-70
2023/03/25 02:11:20;;;;;;;;;;;;;;;13.95;54.24;96833.75;4216431;28;5763;-70
2023/03/25 02:13:23;;;;;;;;;;;;;;;13.97;54.16;96826.38;4206905;28;5616;-70
2023/03/25 02:15:26;;;;;;;;;;;;;;;13.98;54.17;96822.69;4211719;28;5646;-70
2023/03/25 02:17:36;;;;;;;;;;;;;;;14.01;53.91;96820.63;4212654;28;5605;-70
2023/03/25 02:20:08;;;;;;;;;;;;;;;14.03;54.19;96824.69;4209593;28;5615;-71
2023/03/25 02:22:36;;;;;;;;;;;;;;;14.06;54.12;96818.16;4210099;28;5756;-70
2023/03/25 02:25:14;;;;;;;;;;;;;;;14.08;53.90;96822.22;4213611;28;5613;-70
2023/03/25 02:27:32;;;;;;;;;;;;;;;14.09;53.67;96825.69;4199979;28;6134;-70
2023/03/25 02:29:58;;;;;;;;;;;;;;;14.08;53.59;96834.72;4210935;28;5612;-71
2023/03/25 02:32:15;;;;;;;;;;;;;;;14.01;53.89;96829.41;4200689;28;5613;-70
2023/03/25 02:34:41;;;;;;;;;;;;;;;13.97;53.90;96834.34;4216602;28;6394;-71
2023/03/25 02:37:03;;;;;;;;;;;;;;;13.93;53.62;96840.28;4214273;28;5659;-71
2023/03/25 02:39:13;;;;;;;;;;;;;;;13.87;54.03;96841.97;4201126;28;5713;-71
2023/03/25 02:41:22;;;;;;;;;;;;;;;13.74;53.97;96852.66;4220179;28;5633;-70
2023/03/25 02:43:32;;;;;;;;;;;;;;;13.70;54.06;96846.13;4217283;28;5688;-70
2023/03/25 02:45:40;;;;;;;;;;;;;;;13.73;54.19;96845.72;4219801;28;5861;-71
2023/03/25 02:47:47;;;;;;;;;;;;;;;13.76;54.13;96837.31;4217884;28;5604;-70
2023/03/25 02:49:55;;;;;;;;;;;;;;;13.78;54.10;96837.94;4208351;28;5687;-71
2023/03/25 02:52:02;;;;;;;;;;;;;;;13.81;53.79;96848.13;4214522;28;5711;-71
2023/03/25 02:54:09;;;;;;;;;;;;;;;13.80;53.80;96833.22;4220626;28;5680;-70
2023/03/25 02:56:20;;;;;;;;;;;;;;;13.81;53.71;96836.69;4214863;28;5779;-71
2023/03/25 02:58:26;;;;;;;;;;;;;;;13.79;54.02;96828.94;4209572;28;5834;-70
2023/03/25 03:00:30;;;;;;;;;;;;;;;13.79;54.08;96825.44;4212210;28;5666;-71
2023/03/25 03:02:34;;;;;;;;;;;;;;;13.81;53.92;96821.56;4219380;28;5621;-70
2023/03/25 03:04:48;;;;;;;;;;;;;;;13.81;54.00;96816.22;4216778;28;5639;-70
2023/03/25 03:06:52;;;;;;;;;;;;;;;13.84;53.95;96820.34;4212396;28;5841;-71
2023/03/25 03:09:21;;;;;;;;;;;;;;;13.82;53.81;96828.53;4219372;28;5671;-70
2023/03/25 03:11:30;;;;;;;;;;;;;;;13.83;53.71;96832.00;4206315;28;5642;-70
2023/03/25 03:13:43;;;;;;;;;;;;;;;13.83;53.84;96835.47;4219686;28;6336;-70
2023/03/25 03:15:56;;;;;;;;;;;;;;;13.84;53.85;96834.44;4214804;28;5724;-71
2023/03/25 03:18:09;;;;;;;;;;;;;;;13.86;53.95;96827.06;4214610;28;5732;-70
2023/03/25 03:20:18;;;;;;;;;;;;;;;13.85;53.63;96827.28;4218477;28;5724;-70
2023/03/25 03:22:35;;;;;;;;;;;;;;;13.83;53.90;96829.34;4215832;28;5627;-70
2023/03/25 03:24:41;;;;;;;;;;;;;;;13.83;53.95;96835.47;4219132;28;5385;-71
2023/03/25 03:26:52;;;;;;;;;;;;;;;13.84;53.79;96842.41;4218291;28;7752;-71
2023/03/25 03:29:01;;;;;;;;;;;;;;;13.88;54.04;96843.59;4218879;28;5636;-71
2023/03/25 03:31:08;;;;;;;;;;;;;;;13.87;53.70;96831.34;4216896;28;6312;-71
2023/03/25 03:33:16;;;;;;;;;;;;;;;13.90;53.68;96830.91;4219861;28;5648;-70
2023/03/25 03:35:24;;;;;;;;;;;;;;;13.90;54.01;96838.06;4214041;28;5805;-71
2023/03/25 03:37:33;;;;;;;;;;;;;;;13.90;53.72;96844.19;4213789;28;6304;-70
2023/03/25 03:39:38;;;;;;;;;;;;;;;13.88;53.64;96832.97;4217913;28;5720;-70
2023/03/25 03:41:43;;;;;;;;;;;;;;;13.92;53.72;96843.97;4218596;28;5724;-70
2023/03/25 03:43:51;;;;;;;;;;;;;;;13.93;53.78;96829.66;4213378;28;5628;-69
2023/03/25 03:45:59;;;;;;;;;;;;;;;13.92;54.14;96838.66;4216502;28;5608;-71
2023/03/25 03:48:07;;;;;;;;;;;;;;;13.94;53.82;96837.44;4217512;28;5617;-70
2023/03/25 03:50:15;;;;;;;;;;;;;;;13.95;53.91;96833.75;4214068;28;5742;-70
2023/03/25 03:52:25;;;;;;;;;;;;;;;13.95;53.77;96833.75;4207086;28;5631;-70
2023/03/25 03:54:31;;;;;;;;;;;;;;;13.92;53.84;96831.50;4215179;28;5628;-69
2023/03/25 03:56:40;;;;;;;;;;;;;;;13.93;53.85;96830.50;4216927;28;5770;-70
2023/03/25 03:58:43;;;;;;;;;;;;;;;13.95;54.00;96841.72;4218093;28;5840;-70
2023/03/25 04:00:52;;;;;;;;;;;;;;;13.96;54.15;96839.88;4217483;28;5621;-70
2023/03/25 04:02:57;;;;;;;;;;;;;;;13.96;53.98;96846.03;4217328;28;5621;-70
2023/03/25 04:05:00;;;;;;;;;;;;;;;13.95;53.97;96844.38;4218604;28;5617;-70
2023/03/25 04:07:09;;;;;;;;;;;;;;;13.94;53.95;96834.78;4211563;28;5616;-70
2023/03/25 04:09:25;;;;;;;;;;;;;;;13.95;53.97;96844.38;4214619;28;5715;-70
2023/03/25 04:11:35;;;;;;;;;;;;;;;13.98;53.91;96833.31;4214427;28;5755;-70
2023/03/25 04:13:43;;;;;;;;;;;;;;;13.99;54.01;96826.16;4216869;28;5616;-70
2023/03/25 04:15:46;;;;;;;;;;;;;;;13.95;54.10;96827.63;4205610;28;6305;-70
2023/03/25 04:17:51;;;;;;;;;;;;;;;13.92;53.88;96839.47;4210344;28;5625;-70
2023/03/25 04:19:54;;;;;;;;;;;;;;;13.88;53.84;96840.94;4216717;28;5762;-70
2023/03/25 04:21:57;;;;;;;;;;;;;;;13.87;54.12;96838.50;4217990;28;5824;-70
2023/03/25 04:24:00;;;;;;;;;;;;;;;13.83;54.07;96835.47;4214633;28;7676;-70
2023/03/25 04:26:03;;;;;;;;;;;;;;;13.83;53.96;96840.78;4218747;28;6299;-70
2023/03/25 04:28:06;;;;;;;;;;;;;;;13.81;53.98;96840.16;4219376;28;5803;-70
2023/03/25 04:30:10;;;;;;;;;;;;;;;13.82;53.92;96841.00;4215108;28;6319;-70
2023/03/25 04:32:15;;;;;;;;;;;;;;;13.84;53.64;96839.75;4217852;28;5625;-70
2023/03/25 04:34:19;;;;;;;;;;;;;;;13.83;53.90;96846.09;4216939;28;5589;-69
2023/03/25 04:36:22;;;;;;;;;;;;;;;13.84;53.76;96853.03;4213511;28;5623;-70
2023/03/25 04:38:25;;;;;;;;;;;;;;;13.83;53.67;96867.34;4212766;28;5627;-71
2023/03/25 04:40:28;;;;;;;;;;;;;;;13.86;53.85;96858.13;4211916;28;5695;-70
2023/03/25 04:42:36;;;;;;;;;;;;;;;13.87;53.64;96873.88;4217706;28;5613;-70
2023/03/25 04:44:39;;;;;;;;;;;;;;;13.87;53.89;96873.88;4212183;28;5759;-69
2023/03/25 04:46:42;;;;;;;;;;;;;;;13.87;53.67;96883.69;4217746;28;5797;-71
2023/03/25 04:48:46;;;;;;;;;;;;;;;13.87;53.53;96884.50;4218578;28;5616;-70
2023/03/25 04:50:51;;;;;;;;;;;;;;;13.87;53.73;96883.69;4216333;28;6323;-70
2023/03/25 04:52:56;;;;;;;;;;;;;;;13.83;53.41;96883.28;4216852;28;5621;-70
2023/03/25 04:55:00;;;;;;;;;;;;;;;13.81;53.57;96889.81;4214891;28;5683;-70
2023/03/25 04:57:03;;;;;;;;;;;;;;;13.79;53.46;96884.72;4216403;28;5806;-71
2023/03/25 04:59:07;;;;;;;;;;;;;;;13.80;53.67;96893.50;4216342;28;5777;-71
2023/03/25 05:01:22;;;;;;;;;;;;;;;13.74;53.38;96892.53;4216363;28;5597;-70
2023/03/25 05:03:24;;;;;;;;;;;;;;;13.74;53.34;96900.50;4210552;28;5716;-71
2023/03/25 05:05:27;;;;;;;;;;;;;;;13.71;53.27;96900.91;4216688;28;5620;-70
2023/03/25 05:07:32;;;;;;;;;;;;;;;13.70;53.36;96904.56;4214619;28;5725;-70
2023/03/25 05:09:35;;;;;;;;;;;;;;;13.70;53.38;96909.88;4215768;28;5729;-70
2023/03/25 05:11:40;;;;;;;;;;;;;;;13.74;53.48;96920.94;4206389;28;5679;-70
2023/03/25 05:13:43;;;;;;;;;;;;;;;13.75;53.17;96918.06;4217310;28;6316;-70
2023/03/25 05:15:47;;;;;;;;;;;;;;;13.76;53.08;96913.56;4215168;28;5818;-70
2023/03/25 05:17:50;;;;;;;;;;;;;;;13.77;53.26;96905.38;4211403;28;5772;-70
2023/03/25 05:19:53;;;;;;;;;;;;;;;13.74;53.06;96908.47;4215519;28;5956;-70
2023/03/25 05:21:57;;;;;;;;;;;;;;;13.68;53.32;96898.66;4216810;28;5721;-70
2023/03/25 05:24:01;;;;;;;;;;;;;;;13.66;53.16;96898.06;4216202;28;5617;-71
2023/03/25 05:26:05;;;;;;;;;;;;;;;13.65;53.15;96896.44;4214062;28;5780;-71
2023/03/25 05:28:08;;;;;;;;;;;;;;;13.66;52.81;96903.38;4201412;28;5916;-70
2023/03/25 05:30:12;;;;;;;;;;;;;;;13.68;52.81;96910.09;4198545;28;5911;-70
2023/03/25 05:32:16;;;;;;;;;;;;;;;13.71;52.88;96913.41;4198093;28;5700;-70
2023/03/25 05:34:19;;;;;;;;;;;;;;;13.70;52.94;96909.88;4216834;28;5729;-70
2023/03/25 05:36:23;;;;;;;;;;;;;;;13.69;52.71;96909.06;4213968;28;5625;-70
2023/03/25 05:38:26;;;;;;;;;;;;;;;13.69;53.03;96911.72;4215675;28;6113;-70
2023/03/25 05:40:31;;;;;;;;;;;;;;;13.68;52.62;96903.97;4217693;28;5733;-70
2023/03/25 05:42:36;;;;;;;;;;;;;;;13.66;52.61;96898.06;4215834;28;5732;-70
2023/03/25 05:44:45;;;;;;;;;;;;;;;13.64;52.73;96878.88;4215742;28;5624;-70
2023/03/25 05:46:48;;;;;;;;;;;;;;;13.64;53.02;96884.19;4217046;28;5695;-70
2023/03/25 05:48:51;;;;;;;;;;;;;;;13.65;52.78;96886.63;4216973;28;6373;-70
2023/03/25 05:50:55;;;;;;;;;;;;;;;13.65;52.84;96883.16;4215674;28;5617;-71
2023/03/25 05:52:58;;;;;;;;;;;;;;;13.66;52.87;96888.25;4217915;28;6544;-71
2023/03/25 05:55:02;;;;;;;;;;;;;;;13.69;53.13;96887.81;4214530;28;5780;-70
2023/03/25 05:57:06;;;;;;;;;;;;;;;13.71;52.97;96884.97;4212359;28;5786;-70
2023/03/25 05:59:10;;;;;;;;;;;;;;;13.73;52.99;96882.94;4214679;28;5624;-70
2023/03/25 06:01:14;;;;;;;;;;;;;;;13.71;53.09;96887.63;4210262;28;6340;-71
2023/03/25 06:03:34;;;;;;;;;;;;;;;13.71;53.17;96890.28;4211656;28;5624;-70
2023/03/25 06:05:39;;;;;;;;;;;;;;;13.71;53.17;96894.78;4215634;28;5621;-69
2023/03/25 06:07:42;;;;;;;;;;;;;;;13.68;53.11;96901.31;4215530;28;5843;-70
2023/03/25 06:09:46;;;;;;;;;;;;;;;13.69;52.90;96894.97;4211883;28;5813;-70
2023/03/25 06:11:52;;;;;;;;;;;;;;;13.71;52.91;96894.78;4197964;28;5631;-70
2023/03/25 06:13:56;;;;;;;;;;;;;;;13.69;53.06;96889.66;4198995;28;5613;-70
2023/03/25 06:15:59;;;;;;;;;;;;;;;13.68;53.12;96888.03;4193327;28;5638;-70
2023/03/25 06:18:02;;;;;;;;;;;;;;;13.71;52.95;96882.31;4195784;28;5747;-70
2023/03/25 06:20:10;;;;;;;;;;;;;;;13.72;52.93;96877.81;4199579;28;5744;-70
2023/03/25 06:22:14;;;;;;;;;;;;;;;13.73;52.91;96877.63;4197502;28;5733;-71
2023/03/25 06:24:17;;;;;;;;;;;;;;;13.75;53.12;96885.38;4199865;28;5748;-70
2023/03/25 06:26:23;;;;;;;;;;;;;;;13.79;52.79;96886.56;4198310;28;5714;-70
2023/03/25 06:28:26;;;;;;;;;;;;;;;13.76;52.65;96876.38;4196538;28;5756;-70
2023/03/25 06:30:30;;;;;;;;;;;;;;;13.71;52.95;96874.34;4193208;28;5754;-70
2023/03/25 06:32:33;;;;;;;;;;;;;;;13.68;53.03;96870.25;4197716;28;5635;-71
2023/03/25 06:34:37;;;;;;;;;;;;;;;13.71;53.04;96873.53;4196300;28;5619;-70
2023/03/25 06:36:40;;;;;;;;;;;;;;;13.75;52.80;96874.75;4197485;28;5801;-70
2023/03/25 06:38:43;;;;;;;;;;;;;;;13.78;53.02;96875.13;4200631;28;5785;-70
2023/03/25 06:40:46;;;;;;;;;;;;;;;13.79;52.65;96866.13;4188509;28;6315;-70
2023/03/25 06:42:49;;;;;;;;;;;;;;;13.79;52.72;96855.50;4195986;28;5631;-69
2023/03/25 06:44:52;;;;;;;;;;;;;;;13.84;52.73;96858.34;4196993;28;5632;-70
2023/03/25 06:46:59;;;;;;;;;;;;;;;13.86;52.52;96861.59;4197601;28;5662;-70
2023/03/25 06:49:02;;;;;;;;;;;;;;;13.88;52.78;96859.53;4199645;28;5631;-70
2023/03/25 06:51:05;;;;;;;;;;;;;;;13.90;52.35;96860.16;4195358;28;5825;-70
2023/03/25 06:53:10;;;;;;;;;;;;;;;13.91;52.48;96864.44;4186020;28;5642;-70
2023/03/25 06:55:15;;;;;;;;;;;;;;;13.92;52.32;96870.56;4195939;28;5649;-70
2023/03/25 06:57:18;;;;;;;;;;;;;;;13.93;52.53;96866.88;4194291;28;5757;-70
2023/03/25 06:59:21;;;;;;;;;;;;;;;13.95;52.24;96864.84;4190342;28;5803;-70
2023/03/25 07:01:23;;;;;;;;;;;;;;;13.94;52.21;96869.34;4186351;28;5761;-71
2023/03/25 07:03:28;;;;;;;;;;;;;;;13.96;52.29;96874.44;4198407;28;5704;-70
2023/03/25 07:05:31;;;;;;;;;;;;;;;13.95;52.27;96870.97;4197291;28;5631;-70
2023/03/25 07:07:34;;;;;;;;;;;;;;;13.94;52.42;96877.31;4191583;28;5653;-70
2023/03/25 07:09:37;;;;;;;;;;;;;;;13.95;52.32;96870.97;4196465;28;5830;-71
2023/03/25 07:11:40;;;;;;;;;;;;;;;13.96;52.44;96861.97;4191977;28;5814;-71
2023/03/25 07:13:42;;;;;;;;;;;;;;;13.95;52.36;96870.97;4199112;28;5858;-71
2023/03/25 07:15:45;;;;;;;;;;;;;;;13.96;52.26;96859.31;4197794;28;5623;-71
2023/03/25 07:17:49;;;;;;;;;;;;;;;14.01;52.39;96858.66;4194878;28;5633;-71
2023/03/25 07:19:53;;;;;;;;;;;;;;;14.02;52.36;96854.97;4194050;28;5643;-71
2023/03/25 07:21:56;;;;;;;;;;;;;;;14.03;52.32;96866.41;4196092;28;5635;-71
2023/03/25 07:23:59;;;;;;;;;;;;;;;14.03;52.16;96861.09;4198639;28;5643;-71
2023/03/25 07:26:01;;;;;;;;;;;;;;;14.01;51.97;96863.16;4202473;28;5768;-69
2023/03/25 07:28:05;;;;;;;;;;;;;;;14.04;52.26;96868.03;4199247;28;5611;-70
2023/03/25 07:30:10;;;;;;;;;;;;;;;14.06;52.16;96863.34;4198956;28;5626;-71
2023/03/25 07:32:14;;;;;;;;;;;;;;;14.05;51.71;96865.19;4201457;28;5663;-70
2023/03/25 07:34:22;;;;;;;;;;;;;;;14.01;52.07;96865.81;4201613;28;5823;-71
2023/03/25 07:36:27;;;;;;;;;;;;;;;14.05;51.99;96867.03;4201638;28;5642;-69
2023/03/25 07:38:32;;;;;;;;;;;;;;;13.97;51.64;96860.94;4201473;28;5831;-70
2023/03/25 07:40:36;;;;;;;;;;;;;;;14.03;51.81;96872.53;4201471;28;5797;-71
2023/03/25 07:42:42;;;;;;;;;;;;;;;13.96;51.97;96861.97;4201145;28;5776;-71
2023/03/25 07:44:54;;;;;;;;;;;;;;;13.95;51.74;96870.16;4201858;28;5694;-72
2023/03/25 07:46:58;;;;;;;;;;;;;;;13.89;51.77;96853.19;4198050;28;5624;-71
2023/03/25 07:49:03;;;;;;;;;;;;;;;13.86;51.76;96860.78;4202042;28;5687;-68
2023/03/25 07:51:07;;;;;;;;;;;;;;;13.81;52.04;96857.94;4200554;28;5632;-71
2023/03/25 07:53:13;;;;;;;;;;;;;;;13.86;51.84;96868.75;4200717;28;6430;-70
2023/03/25 07:55:17;;;;;;;;;;;;;;;13.87;52.00;96870.38;4201004;28;5882;-70
2023/03/25 07:57:21;;;;;;;;;;;;;;;13.84;52.00;96873.47;4200043;28;5635;-71
2023/03/25 07:59:32;;;;;;;;;;;;;;;13.89;51.74;96877.13;4196199;28;5618;-70
2023/03/25 08:01:36;;;;;;;;;;;;;;;13.88;51.70;96864.03;4197495;28;5822;-71
2023/03/25 08:03:42;;;;;;;;;;;;;;;13.88;51.82;96870.16;4200292;28;5644;-71
2023/03/25 08:05:47;;;;;;;;;;;;;;;13.90;51.76;96876.09;4199387;28;5773;-71
2023/03/25 08:07:51;;;;;;;;;;;;;;;13.83;52.02;96877.97;4197309;28;5603;-71
2023/03/25 08:09:57;;;;;;;;;;;;;;;13.80;52.14;96875.72;4201660;28;5634;-72
2023/03/25 08:12:00;;;;;;;;;;;;;;;13.88;52.05;96890.63;4201083;28;5642;-70
2023/03/25 08:14:04;;;;;;;;;;;;;;;13.77;51.92;96883.31;4202211;28;5220;-72
2023/03/25 08:16:18;;;;;;;;;;;;;;;13.85;52.15;96891.06;4202911;28;5611;-70
2023/03/25 08:18:24;;;;;;;;;;;;;;;13.86;52.06;96887.38;4202746;28;7468;-70
2023/03/25 08:20:28;;;;;;;;;;;;;;;13.84;52.05;96884.91;4194675;28;6459;-71
2023/03/25 08:22:32;;;;;;;;;;;;;;;13.86;52.00;96879.41;4202430;28;5640;-71
2023/03/25 08:24:35;;;;;;;;;;;;;;;13.96;51.90;96885.06;4202350;28;5719;-70
2023/03/25 08:26:39;;;;;;;;;;;;;;;13.98;52.35;96881.16;4202169;28;5635;-71
2023/03/25 08:28:42;;;;;;;;;;;;;;;14.01;51.93;96889.75;4202387;28;5643;-71
2023/03/25 08:30:48;;;;;;;;;;;;;;;13.93;51.87;96878.34;4202565;28;6419;-71
2023/03/25 08:32:54;;;;;;;;;;;;;;;13.95;52.16;96884.25;4202465;28;5631;-70
2023/03/25 08:34:57;;;;;;;;;;;;;;;14.02;52.19;96883.41;4202118;28;5957;-71
2023/03/25 08:37:01;;;;;;;;;;;;;;;14.04;51.93;96884.00;4202333;28;5618;-71
2023/03/25 08:39:08;;;;;;;;;;;;;;;14.03;52.30;96872.53;4202008;28;5699;-70
2023/03/25 08:41:11;;;;;;;;;;;;;;;14.01;52.35;96879.91;4202126;28;5777;-71
2023/03/25 08:43:19;;;;;;;;;;;;;;;14.02;52.43;96892.19;4202042;28;5743;-70
2023/03/25 08:45:23;;;;;;;;;;;;;;;13.96;52.44;96893.84;4200097;28;5725;-71
2023/03/25 08:47:27;;;;;;;;;;;;;;;13.98;52.52;96907.75;4198835;28;5612;-70
2023/03/25 08:49:36;;;;;;;;;;;;;;;13.87;52.66;96913.72;4200365;28;6356;-70
2023/03/25 08:51:40;;;;;;;;;;;;;;;13.87;52.61;96919.03;4201294;28;5782;-70
2023/03/25 08:53:43;;;;;;;;;;;;;;;13.90;52.66;96915.94;4200209;28;5774;-70
2023/03/25 08:55:46;;;;;;;;;;;;;;;13.89;52.96;96929.44;4199998;28;5813;-70
2023/03/25 08:57:49;;;;;;;;;;;;;;;13.90;52.70;96931.91;4198867;28;6405;-71
2023/03/25 08:59:54;;;;;;;;;;;;;;;13.90;52.75;96933.75;4182022;28;5812;-70
2023/03/25 09:01:57;;;;;;;;;;;;;;;13.91;53.03;96933.53;4197515;28;5631;-70
2023/03/25 09:04:03;;;;;;;;;;;;;;;13.93;52.84;96942.13;4180975;28;5763;-71
2023/03/25 09:06:07;;;;;;;;;;;;;;;13.90;52.89;96936.41;4199022;28;5726;-69
2023/03/25 09:08:10;;;;;;;;;;;;;;;13.89;52.89;96940.91;4199744;28;5714;-70
2023/03/25 09:10:13;;;;;;;;;;;;;;;13.89;52.98;96940.91;4200013;28;6323;-69
2023/03/25 09:12:16;;;;;;;;;;;;;;;13.83;52.97;96944.41;4199886;28;5726;-70
2023/03/25 09:14:18;;;;;;;;;;;;;;;13.80;53.10;96950.13;4200199;28;5655;-70
2023/03/25 09:16:23;;;;;;;;;;;;;;;13.74;53.12;96943.00;4200161;28;5619;-70
2023/03/25 09:18:26;;;;;;;;;;;;;;;13.68;53.38;96938.50;4199772;28;5659;-71
2023/03/25 09:20:29;;;;;;;;;;;;;;;13.63;53.34;96946.31;4199607;28;5636;-71
2023/03/25 09:22:32;;;;;;;;;;;;;;;13.61;53.04;96948.34;4182377;28;5809;-70
2023/03/25 09:24:35;;;;;;;;;;;;;;;13.54;53.31;96947.53;4200127;28;5627;-70
2023/03/25 09:26:38;;;;;;;;;;;;;;;13.49;53.12;96956.16;4200049;28;5644;-70
2023/03/25 09:28:41;;;;;;;;;;;;;;;13.49;53.26;96944.72;4199712;28;5717;-69
2023/03/25 09:30:44;;;;;;;;;;;;;;;13.48;53.17;96953.69;4199773;28;6445;-70
2023/03/25 09:32:48;;;;;;;;;;;;;;;13.45;53.17;96954.09;4199720;28;5739;-70
2023/03/25 09:34:51;;;;;;;;;;;;;;;13.41;53.31;96956.34;4199787;28;6442;-70
2023/03/25 09:36:55;;;;;;;;;;;;;;;13.40;53.41;96947.56;4199862;28;5635;-70
2023/03/25 09:38:58;;;;;;;;;;;;;;;13.47;53.42;96942.22;4199297;28;5710;-70
2023/03/25 09:41:05;;;;;;;;;;;;;;;13.48;53.50;96940.41;4199512;28;5706;-70
2023/03/25 09:43:28;;;;;;;;;;;;;;;13.49;53.15;96945.53;4199447;28;6482;-71
2023/03/25 09:45:36;;;;;;;;;;;;;;;13.52;53.50;96946.94;4199363;28;5631;-71
2023/03/25 09:47:42;;;;;;;;;;;;;;;13.58;53.31;96944.25;4199536;28;5640;-71
2023/03/25 09:49:52;;;;;;;;;;;;;;;13.62;53.31;96950.00;4199586;28;5760;-70
2023/03/25 09:51:56;;;;;;;;;;;;;;;13.61;53.21;96946.50;4199648;28;5105;-70
2023/03/25 09:54:04;;;;;;;;;;;;;;;13.65;53.11;96952.22;4200025;28;7715;-70
2023/03/25 09:56:13;;;;;;;;;;;;;;;13.66;53.51;96943.22;4199451;28;5615;-70
2023/03/25 09:58:34;;;;;;;;;;;;;;;13.64;53.13;96947.94;4199221;28;5718;-70
2023/03/25 10:00:36;;;;;;;;;;;;;;;13.64;53.50;96951.41;4193254;28;5743;-70
2023/03/25 10:02:46;;;;;;;;;;;;;;;13.65;53.09;96955.69;4199379;28;6429;-70
2023/03/25 10:05:03;;;;;;;;;;;;;;;13.65;52.97;96960.19;4199496;28;5627;-70
2023/03/25 10:07:14;;;;;;;;;;;;;;;13.67;52.97;96958.13;4197303;28;5714;-70
2023/03/25 10:09:34;;;;;;;;;;;;;;;13.70;52.92;96949.75;4199191;28;5623;-70
2023/03/25 10:11:47;;;;;;;;;;;;;;;13.70;52.97;96952.41;4193032;28;5726;-70
2023/03/25 10:13:59;;;;;;;;;;;;;;;13.71;52.83;96954.06;4199505;28;5722;-73
2023/03/25 10:16:12;;;;;;;;;;;;;;;13.74;52.92;96947.50;4199586;28;5868;-69
2023/03/25 10:18:31;;;;;;;;;;;;;;;13.74;52.89;96947.50;4199398;28;6170;-69
2023/03/25 10:20:45;;;;;;;;;;;;;;;13.74;52.53;96945.66;4192369;28;5109;-69
2023/03/25 10:23:03;;;;;;;;;;;;;;;13.78;52.48;96944.22;4199317;28;5624;-70
2023/03/25 10:25:14;;;;;;;;;;;;;;;13.78;52.69;96933.56;4199244;28;5631;-69
2023/03/25 10:27:23;;;;;;;;;;;;;;;13.83;52.65;96941.75;4199100;28;5616;-70
2023/03/25 10:29:31;;;;;;;;;;;;;;;13.86;52.45;96943.97;4190931;28;5785;-70
2023/03/25 10:31:39;;;;;;;;;;;;;;;13.89;52.13;96948.88;4199260;28;5635;-70
2023/03/25 10:33:50;;;;;;;;;;;;;;;13.91;52.47;96946.81;4181111;28;5973;-70
2023/03/25 10:35:57;;;;;;;;;;;;;;;13.93;52.15;96947.44;4199100;28;5867;-70
2023/03/25 10:38:05;;;;;;;;;;;;;;;13.94;52.07;96953.56;4198928;28;5703;-69
2023/03/25 10:40:24;;;;;;;;;;;;;;;13.92;52.29;96955.59;4198848;28;5631;-69
2023/03/25 10:42:33;;;;;;;;;;;;;;;13.93;52.26;96949.25;4191093;28;5634;-69
2023/03/25 10:44:36;;;;;;;;;;;;;;;13.93;52.01;96947.44;4199337;28;5768;-70
2023/03/25 10:46:46;;;;;;;;;;;;;;;13.87;52.00;96945.63;4198877;28;5636;-70
2023/03/25 10:48:50;;;;;;;;;;;;;;;13.87;51.90;96952.78;4199299;28;5644;-70
2023/03/25 10:51:03;;;;;;;;;;;;;;;13.89;52.04;96953.38;4198909;28;6221;-70
2023/03/25 10:53:18;;;;;;;;;;;;;;;13.94;51.86;96957.03;4199244;28;5718;-70
2023/03/25 10:55:25;;;;;;;;;;;;;;;13.99;51.80;96948.44;4199270;28;5766;-70
2023/03/25 10:57:29;;;;;;;;;;;;;;;14.04;51.71;96947.78;4192700;28;5615;-69
2023/03/25 10:59:37;;;;;;;;;;;;;;;14.06;51.90;96946.56;4182847;28;5827;-70
2023/03/25 11:01:42;;;;;;;;;;;;;;;14.11;51.80;96953.91;4202231;28;5650;-70
2023/03/25 11:03:49;;;;;;;;;;;;;;;14.11;51.92;96957.38;4202518;28;6319;-70
2023/03/25 11:05:54;;;;;;;;;;;;;;;14.14;51.49;96964.09;4202316;28;5636;-70